createdAt,value
2022-11-05T00:01:11.708Z,9.60
2022-11-05T00:03:57.537Z,9.50
2022-11-05T00:06:43.415Z,9.60
2022-11-05T00:09:31.745Z,9.60
2022-11-05T00:12:19.626Z,9.60
2022-11-05T00:15:05.519Z,9.60
2022-11-05T00:17:33.937Z,9.70
2022-11-05T00:20:02.337Z,9.70
2022-11-05T00:22:52.815Z,9.70
2022-11-05T00:25:22.959Z,9.70
2022-11-05T00:27:53.196Z,9.80
2022-11-05T00:30:24.306Z,9.70
2022-11-05T00:32:53.485Z,9.60
2022-11-05T00:35:23.284Z,9.60
2022-11-05T00:37:53.997Z,9.60
2022-11-05T00:40:23.843Z,9.60
2022-11-05T00:43:09.731Z,9.60
2022-11-05T00:45:38.901Z,9.60
2022-11-05T00:48:25.083Z,9.50
2022-11-05T00:50:53.294Z,9.50
2022-11-05T00:53:24.875Z,9.50
2022-11-05T00:55:54.681Z,9.50
2022-11-05T00:58:23.940Z,9.50
2022-11-05T01:00:53.398Z,9.50
2022-11-05T01:03:25.048Z,9.50
2022-11-05T01:05:55.284Z,9.40
2022-11-05T01:08:25.395Z,9.40
2022-11-05T01:10:56.595Z,9.40
2022-11-05T01:13:27.186Z,9.40
2022-11-05T01:15:56.616Z,9.40
2022-11-05T01:18:26.068Z,9.40
2022-11-05T01:20:54.193Z,9.40
2022-11-05T01:23:22.365Z,9.40
2022-11-05T01:25:50.509Z,9.40
2022-11-05T01:28:20.330Z,9.40
2022-11-05T01:30:56.650Z,9.40
2022-11-05T01:33:24.852Z,9.40
2022-11-05T01:35:53.468Z,9.40
2022-11-05T01:38:24.136Z,9.40
2022-11-05T01:40:53.144Z,9.40
2022-11-05T01:43:24.458Z,9.40
2022-11-05T01:45:55.165Z,9.30
2022-11-05T01:48:26.422Z,9.30
2022-11-05T01:50:59.330Z,9.40
2022-11-05T01:53:33.531Z,9.30
2022-11-05T01:56:07.179Z,9.30
2022-11-05T01:58:42.604Z,9.30
2022-11-05T02:01:10.791Z,9.30
2022-11-05T02:03:39.939Z,9.30
2022-11-05T02:06:09.513Z,9.20
2022-11-05T02:08:53.192Z,9.20
2022-11-05T02:11:21.699Z,9.20
2022-11-05T02:13:51.919Z,9.20
2022-11-05T02:16:31.964Z,9.20
2022-11-05T02:19:08.429Z,9.10
2022-11-05T02:22:05.997Z,9.10
2022-11-05T02:25:02.542Z,9.10
2022-11-05T02:27:51.733Z,9.10
2022-11-05T02:30:38.866Z,9.10
2022-11-05T02:33:23.213Z,9.00
2022-11-05T02:36:07.705Z,9.00
2022-11-05T02:38:42.649Z,9.00
2022-11-05T02:41:19.708Z,9.00
2022-11-05T02:44:00.856Z,9.00
2022-11-05T02:46:38.836Z,9.00
2022-11-05T02:49:14.810Z,9.10
2022-11-05T02:51:48.447Z,9.00
2022-11-05T02:54:23.291Z,9.10
2022-11-05T02:56:55.001Z,9.10
2022-11-05T02:59:24.672Z,9.10
2022-11-05T03:01:55.144Z,9.10
2022-11-05T03:04:26.065Z,9.00
2022-11-05T03:07:26.223Z,8.90
2022-11-05T03:10:19.721Z,9.00
2022-11-05T03:13:01.298Z,9.00
2022-11-05T03:15:44.454Z,9.00
2022-11-05T03:18:24.109Z,8.90
2022-11-05T03:20:58.293Z,8.90
2022-11-05T03:23:31.377Z,9.00
2022-11-05T03:26:05.721Z,9.00
2022-11-05T03:28:37.210Z,9.00
2022-11-05T03:31:08.117Z,9.00
2022-11-05T03:33:39.826Z,9.00
2022-11-05T03:36:17.819Z,9.00
2022-11-05T03:38:50.545Z,8.90
2022-11-05T03:41:20.414Z,8.90
2022-11-05T03:43:53.155Z,9.00
2022-11-05T03:46:27.671Z,8.90
2022-11-05T03:49:00.243Z,8.90
2022-11-05T03:51:37.705Z,8.90
2022-11-05T03:54:06.769Z,8.90
2022-11-05T03:56:39.482Z,8.80
2022-11-05T03:59:10.304Z,8.80
2022-11-05T04:01:39.574Z,8.80
2022-11-05T04:04:09.844Z,8.80
2022-11-05T04:07:09.650Z,8.90
2022-11-05T04:09:57.818Z,8.80
2022-11-05T04:12:44.009Z,8.70
2022-11-05T04:15:12.622Z,8.70
2022-11-05T04:17:39.772Z,8.70
2022-11-05T04:20:27.498Z,8.60
2022-11-05T04:23:18.038Z,8.70
2022-11-05T04:25:46.521Z,8.70
2022-11-05T04:28:14.818Z,8.70
2022-11-05T04:30:44.304Z,8.80
2022-11-05T04:33:14.858Z,8.70
2022-11-05T04:35:46.688Z,8.80
2022-11-05T04:38:16.490Z,8.70
2022-11-05T04:40:45.608Z,8.80
2022-11-05T04:43:15.706Z,8.80
2022-11-05T04:45:44.484Z,8.80
2022-11-05T04:48:12.892Z,8.80
2022-11-05T04:50:41.020Z,8.80
2022-11-05T04:53:11.076Z,8.80
2022-11-05T04:55:39.431Z,8.70
2022-11-05T04:58:07.511Z,8.70
2022-11-05T05:00:38.160Z,8.70
2022-11-05T05:03:06.355Z,8.70
2022-11-05T05:05:34.466Z,8.70
2022-11-05T05:08:02.950Z,8.70
2022-11-05T05:10:32.661Z,8.70
2022-11-05T05:13:01.055Z,8.60
2022-11-05T05:15:29.250Z,8.60
2022-11-05T05:17:57.366Z,8.60
2022-11-05T05:20:43.199Z,8.60
2022-11-05T05:23:14.269Z,8.60
2022-11-05T05:25:43.800Z,8.60
2022-11-05T05:28:14.656Z,8.60
2022-11-05T05:30:42.736Z,8.60
2022-11-05T05:33:11.512Z,8.70
2022-11-05T05:35:39.788Z,8.70
2022-11-05T05:38:07.836Z,8.70
2022-11-05T05:40:36.032Z,8.70
2022-11-05T05:43:05.520Z,8.70
2022-11-05T05:45:36.659Z,8.70
2022-11-05T05:48:05.430Z,8.70
2022-11-05T05:50:36.506Z,8.70
2022-11-05T05:53:04.605Z,8.70
2022-11-05T05:55:33.043Z,8.70
2022-11-05T05:58:01.236Z,8.70
2022-11-05T06:00:30.761Z,8.70
2022-11-05T06:02:58.927Z,8.70
2022-11-05T06:05:30.540Z,8.70
2022-11-05T06:07:59.278Z,8.70
2022-11-05T06:10:27.474Z,8.60
2022-11-05T06:12:55.712Z,8.60
2022-11-05T06:15:24.127Z,8.60
2022-11-05T06:17:53.596Z,8.60
2022-11-05T06:20:22.233Z,8.60
2022-11-05T06:22:56.168Z,8.60
2022-11-05T06:25:24.803Z,8.50
2022-11-05T06:27:53.063Z,8.50
2022-11-05T06:30:22.015Z,8.50
2022-11-05T06:32:50.191Z,8.50
2022-11-05T06:35:19.704Z,8.60
2022-11-05T06:37:48.083Z,8.50
2022-11-05T06:40:16.282Z,8.60
2022-11-05T06:42:44.384Z,8.60
2022-11-05T06:45:12.475Z,8.60
2022-11-05T06:47:40.945Z,8.40
2022-11-05T06:50:09.631Z,8.40
2022-11-05T06:52:41.226Z,8.40
2022-11-05T06:55:10.454Z,8.40
2022-11-05T06:57:39.647Z,8.40
2022-11-05T07:00:09.752Z,8.40
2022-11-05T07:02:37.806Z,8.30
2022-11-05T07:05:07.286Z,8.30
2022-11-05T07:07:35.494Z,8.30
2022-11-05T07:10:05.823Z,8.20
2022-11-05T07:12:33.960Z,8.20
2022-11-05T07:15:02.457Z,8.10
2022-11-05T07:17:30.760Z,8.10
2022-11-05T07:19:58.898Z,8.10
2022-11-05T07:22:28.941Z,8.10
2022-11-05T07:24:57.081Z,8.10
2022-11-05T07:27:26.747Z,8.10
2022-11-05T07:29:54.890Z,8.20
2022-11-05T07:32:22.996Z,8.30
2022-11-05T07:34:51.134Z,8.30
2022-11-05T07:37:19.299Z,8.40
2022-11-05T07:39:47.362Z,8.40
2022-11-05T07:42:15.602Z,8.50
2022-11-05T07:44:45.563Z,8.50
2022-11-05T07:47:13.683Z,8.50
2022-11-05T07:49:42.150Z,8.50
2022-11-05T07:52:10.954Z,8.40
2022-11-05T07:54:39.075Z,8.50
2022-11-05T07:57:07.184Z,8.50
2022-11-05T07:59:35.315Z,8.50
2022-11-05T08:02:05.393Z,8.40
2022-11-05T08:04:33.716Z,8.40
2022-11-05T08:07:07.607Z,8.40
2022-11-05T08:09:43.478Z,8.30
2022-11-05T08:12:11.849Z,8.40
2022-11-05T08:14:39.975Z,8.40
2022-11-05T08:17:10.759Z,8.40
2022-11-05T08:19:40.111Z,8.40
2022-11-05T08:22:08.403Z,8.40
2022-11-05T08:24:36.573Z,8.50
2022-11-05T08:27:04.966Z,8.50
2022-11-05T08:29:34.396Z,8.40
2022-11-05T08:32:02.705Z,8.40
2022-11-05T08:34:32.408Z,8.50
2022-11-05T08:37:02.210Z,8.50
2022-11-05T08:39:31.071Z,8.60
2022-11-05T08:41:59.513Z,8.60
2022-11-05T08:44:27.747Z,8.70
2022-11-05T08:46:56.466Z,8.80
2022-11-05T08:49:24.873Z,9.00
2022-11-05T08:51:54.347Z,9.30
2022-11-05T08:54:24.098Z,9.60
2022-11-05T08:56:52.624Z,10.20
2022-11-05T08:59:20.922Z,11.80
2022-11-05T09:01:50.660Z,13.70
2022-11-05T09:04:18.892Z,15.10
2022-11-05T09:06:47.218Z,16.10
2022-11-05T09:09:16.717Z,17.10
2022-11-05T09:12:10.479Z,18.00
2022-11-05T09:14:33.250Z,18.40
2022-11-05T09:17:01.573Z,18.20
2022-11-05T09:19:29.943Z,17.70
2022-11-05T09:21:59.476Z,18.30
2022-11-05T09:24:29.006Z,18.50
2022-11-05T09:26:57.090Z,18.70
2022-11-05T09:29:26.291Z,18.90
2022-11-05T09:31:54.623Z,19.10
2022-11-05T09:34:22.982Z,19.20
2022-11-05T09:36:51.092Z,19.40
2022-11-05T09:39:19.260Z,19.50
2022-11-05T09:41:50.058Z,19.40
2022-11-05T09:44:33.719Z,19.00
2022-11-05T09:47:06.187Z,18.90
2022-11-05T09:49:40.114Z,18.70
2022-11-05T09:52:13.408Z,18.10
2022-11-05T09:54:46.133Z,18.00
2022-11-05T09:57:23.215Z,17.90
2022-11-05T09:59:55.091Z,17.80
2022-11-05T10:02:28.690Z,17.20
2022-11-05T10:05:04.910Z,17.20
2022-11-05T10:07:43.495Z,17.40
2022-11-05T10:10:27.182Z,17.60
2022-11-05T10:13:02.581Z,17.50
2022-11-05T10:15:33.739Z,17.60
2022-11-05T10:18:10.992Z,17.60
2022-11-05T10:20:40.639Z,17.60
2022-11-05T10:23:14.036Z,17.60
2022-11-05T10:25:45.210Z,17.60
2022-11-05T10:28:19.329Z,17.60
2022-11-05T10:30:51.090Z,17.50
2022-11-05T10:33:26.092Z,17.50
2022-11-05T10:36:00.344Z,17.40
2022-11-05T10:38:28.572Z,17.30
2022-11-05T10:41:10.748Z,17.30
2022-11-05T10:43:47.085Z,17.30
2022-11-05T10:46:27.499Z,16.80
2022-11-05T10:49:05.425Z,16.40
2022-11-05T10:51:34.720Z,15.40
2022-11-05T10:54:10.475Z,14.80
2022-11-05T10:56:40.490Z,14.30
2022-11-05T10:59:23.412Z,14.00
2022-11-05T11:01:58.641Z,13.60
2022-11-05T11:04:30.370Z,13.30
2022-11-05T11:07:03.440Z,13.00
2022-11-05T11:09:37.592Z,12.90
2022-11-05T11:12:09.053Z,13.00
2022-11-05T11:14:38.628Z,13.10
2022-11-05T11:17:36.719Z,13.10
2022-11-05T11:20:23.593Z,13.10
2022-11-05T11:23:04.153Z,13.20
2022-11-05T11:25:37.023Z,13.00
2022-11-05T11:28:07.233Z,12.90
2022-11-05T11:30:36.853Z,13.10
2022-11-05T11:33:10.538Z,13.10
2022-11-05T11:35:40.363Z,13.20
2022-11-05T11:38:13.385Z,13.10
2022-11-05T11:40:41.797Z,13.10
2022-11-05T11:43:20.326Z,12.90
2022-11-05T11:45:53.199Z,12.80
2022-11-05T11:48:26.342Z,12.70
2022-11-05T11:50:54.836Z,12.60
2022-11-05T11:53:36.028Z,12.50
2022-11-05T11:56:16.858Z,12.60
2022-11-05T11:58:47.948Z,12.70
2022-11-05T12:01:50.853Z,12.80
2022-11-05T12:05:03.427Z,12.90
2022-11-05T12:07:49.278Z,13.00
2022-11-05T12:10:35.258Z,13.00
2022-11-05T12:13:23.990Z,13.00
2022-11-05T12:15:56.620Z,13.00
2022-11-05T12:18:37.152Z,12.90
2022-11-05T12:21:14.659Z,13.00
2022-11-05T12:24:00.879Z,13.10
2022-11-05T12:26:42.403Z,13.20
2022-11-05T12:29:36.187Z,13.20
2022-11-05T12:32:41.002Z,13.40
2022-11-05T12:35:25.281Z,13.40
2022-11-05T12:38:08.781Z,13.40
2022-11-05T12:41:01.041Z,13.40
2022-11-05T12:43:35.985Z,13.30
2022-11-05T12:46:11.886Z,13.40
2022-11-05T12:48:57.678Z,13.40
2022-11-05T12:51:44.059Z,13.30
2022-11-05T12:54:22.679Z,13.40
2022-11-05T12:56:54.811Z,13.50
2022-11-05T12:59:26.328Z,13.50
2022-11-05T13:02:02.452Z,13.70
2022-11-05T13:04:37.477Z,13.80
2022-11-05T13:07:10.757Z,13.80
2022-11-05T13:09:47.002Z,13.70
2022-11-05T13:12:18.372Z,13.70
2022-11-05T13:14:51.639Z,13.70
2022-11-05T13:17:22.646Z,13.60
2022-11-05T13:20:04.548Z,13.40
2022-11-05T13:22:40.995Z,13.40
2022-11-05T13:25:17.354Z,13.30
2022-11-05T13:27:59.308Z,13.30
2022-11-05T13:30:31.268Z,13.10
2022-11-05T13:33:04.208Z,12.90
2022-11-05T13:35:38.648Z,12.90
2022-11-05T13:38:29.510Z,12.80
2022-11-05T13:41:15.953Z,12.80
2022-11-05T13:44:11.073Z,12.80
2022-11-05T13:46:53.352Z,12.70
2022-11-05T13:49:47.191Z,12.60
2022-11-05T13:52:41.959Z,12.70
2022-11-05T13:55:48.778Z,12.80
2022-11-05T13:58:44.593Z,12.80
2022-11-05T14:01:23.947Z,12.80
2022-11-05T14:03:54.669Z,12.70
2022-11-05T14:06:27.219Z,12.80
2022-11-05T14:08:59.714Z,12.80
2022-11-05T14:11:32.301Z,12.70
2022-11-05T14:14:04.160Z,12.80
2022-11-05T14:16:49.684Z,12.80
2022-11-05T14:19:34.642Z,12.80
2022-11-05T14:22:40.828Z,12.80
2022-11-05T14:25:58.120Z,12.70
2022-11-05T14:28:46.852Z,12.70
2022-11-05T14:31:54.287Z,12.80
2022-11-05T14:34:24.404Z,12.70
2022-11-05T14:37:24.107Z,12.70
2022-11-05T14:39:54.559Z,12.60
2022-11-05T14:42:27.726Z,12.60
2022-11-05T14:45:22.144Z,12.50
2022-11-05T14:47:56.270Z,12.50
2022-11-05T14:50:31.225Z,12.40
2022-11-05T14:53:05.485Z,12.40
2022-11-05T14:55:38.171Z,12.40
2022-11-05T14:58:32.867Z,12.40
2022-11-05T15:01:02.742Z,12.40
2022-11-05T15:03:34.754Z,12.30
2022-11-05T15:06:25.906Z,12.30
2022-11-05T15:09:30.193Z,12.30
2022-11-05T15:12:09.616Z,12.30
2022-11-05T15:14:42.945Z,12.30
2022-11-05T15:17:18.793Z,12.30
2022-11-05T15:19:48.312Z,12.30
2022-11-05T15:22:27.926Z,12.40
2022-11-05T15:24:56.877Z,12.30
2022-11-05T15:27:50.656Z,12.30
2022-11-05T15:30:21.096Z,12.20
2022-11-05T15:32:49.581Z,12.10
2022-11-05T15:35:23.616Z,12.00
2022-11-05T15:37:58.775Z,12.10
2022-11-05T15:40:32.061Z,12.00
2022-11-05T15:43:16.405Z,11.90
2022-11-05T15:45:44.675Z,11.90
2022-11-05T15:48:17.204Z,11.90
2022-11-05T15:50:45.560Z,11.90
2022-11-05T15:53:44.185Z,11.80
2022-11-05T15:56:17.186Z,11.70
2022-11-05T15:58:54.540Z,11.60
2022-11-05T16:01:24.816Z,11.60
2022-11-05T16:03:55.655Z,11.50
2022-11-05T16:06:30.356Z,11.50
2022-11-05T16:08:58.727Z,11.50
2022-11-05T16:11:28.294Z,11.60
2022-11-05T16:14:15.101Z,11.60
2022-11-05T16:16:43.830Z,11.50
2022-11-05T16:19:40.264Z,11.50
2022-11-05T16:22:09.183Z,11.50
2022-11-05T16:24:38.016Z,11.40
2022-11-05T16:27:06.435Z,11.40
2022-11-05T16:29:38.452Z,11.40
2022-11-05T16:32:18.328Z,11.50
2022-11-05T16:34:49.728Z,11.40
2022-11-05T16:37:20.137Z,11.40
2022-11-05T16:39:50.767Z,11.30
2022-11-05T16:42:42.020Z,11.40
2022-11-05T16:45:14.946Z,11.30
2022-11-05T16:47:44.554Z,11.20
2022-11-05T16:50:24.029Z,11.20
2022-11-05T16:52:52.655Z,11.20
2022-11-05T16:55:21.445Z,11.20
2022-11-05T16:57:53.628Z,11.20
2022-11-05T17:00:24.608Z,11.20
2022-11-05T17:02:53.448Z,11.00
2022-11-05T17:05:24.851Z,11.00
2022-11-05T17:07:53.717Z,11.10
2022-11-05T17:10:22.649Z,11.00
2022-11-05T17:12:51.667Z,11.00
2022-11-05T17:15:24.516Z,11.00
2022-11-05T17:17:53.634Z,11.00
2022-11-05T17:20:40.337Z,10.90
2022-11-05T17:23:10.569Z,10.80
2022-11-05T17:25:39.666Z,10.70
2022-11-05T17:28:08.902Z,10.70
2022-11-05T17:30:41.711Z,10.60
2022-11-05T17:33:11.450Z,10.60
2022-11-05T17:35:40.663Z,10.60
2022-11-05T17:38:09.016Z,10.50
2022-11-05T17:40:38.173Z,10.60
2022-11-05T17:43:06.702Z,10.50
2022-11-05T17:45:35.103Z,10.50
2022-11-05T17:48:05.098Z,10.50
2022-11-05T17:50:33.271Z,10.40
2022-11-05T17:53:01.708Z,10.40
2022-11-05T17:55:29.901Z,10.50
2022-11-05T17:57:58.692Z,10.50
2022-11-05T18:00:27.610Z,10.50
2022-11-05T18:02:55.826Z,10.50
2022-11-05T18:05:27.953Z,10.60
2022-11-05T18:07:57.822Z,10.50
2022-11-05T18:10:26.160Z,10.50
2022-11-05T18:12:54.834Z,10.50
2022-11-05T18:15:24.616Z,10.50
2022-11-05T18:17:52.954Z,10.50
2022-11-05T18:20:22.022Z,10.60
2022-11-05T18:22:52.878Z,10.50
2022-11-05T18:25:21.258Z,10.50
2022-11-05T18:27:49.425Z,10.50
2022-11-05T18:30:17.615Z,10.60
2022-11-05T18:32:47.721Z,10.60
2022-11-05T18:35:16.095Z,10.60
2022-11-05T18:37:44.230Z,10.60
2022-11-05T18:40:14.237Z,10.60
2022-11-05T18:42:42.949Z,10.50
2022-11-05T18:45:12.665Z,10.50
2022-11-05T18:47:41.096Z,10.50
2022-11-05T18:50:10.555Z,10.50
2022-11-05T18:52:39.065Z,10.50
2022-11-05T18:55:08.898Z,10.50
2022-11-05T18:57:39.296Z,10.50
2022-11-05T19:00:08.879Z,10.50
2022-11-05T19:02:37.090Z,10.50
2022-11-05T19:05:28.089Z,10.50
2022-11-05T19:07:54.260Z,10.40
2022-11-05T19:10:22.525Z,10.40
2022-11-05T19:12:54.531Z,10.40
2022-11-05T19:15:22.833Z,10.40
2022-11-05T19:17:51.162Z,10.40
2022-11-05T19:20:19.572Z,10.40
2022-11-05T19:22:47.780Z,10.40
2022-11-05T19:25:15.944Z,10.40
2022-11-05T19:27:44.148Z,10.40
2022-11-05T19:30:16.223Z,10.50
2022-11-05T19:32:44.394Z,10.50
2022-11-05T19:35:12.521Z,10.50
2022-11-05T19:37:41.161Z,10.50
2022-11-05T19:40:11.144Z,10.50
2022-11-05T19:42:39.331Z,10.40
2022-11-05T19:45:30.381Z,10.30
2022-11-05T19:47:58.275Z,10.40
2022-11-05T19:50:26.756Z,10.40
2022-11-05T19:52:54.896Z,10.40
2022-11-05T19:55:23.064Z,10.50
2022-11-05T19:57:51.297Z,10.40
2022-11-05T20:00:19.744Z,10.40
2022-11-05T20:02:48.276Z,10.30
2022-11-05T20:05:18.398Z,10.30
2022-11-05T20:07:52.332Z,10.30
2022-11-05T20:10:21.181Z,10.30
2022-11-05T20:12:49.696Z,10.30
2022-11-05T20:15:19.728Z,10.30
2022-11-05T20:17:51.202Z,10.30
2022-11-05T20:20:23.889Z,10.30
2022-11-05T20:22:53.895Z,10.20
2022-11-05T20:25:22.068Z,10.20
2022-11-05T20:27:50.367Z,10.20
2022-11-05T20:30:19.055Z,10.20
2022-11-05T20:32:48.248Z,10.20
2022-11-05T20:35:16.409Z,10.30
2022-11-05T20:37:49.790Z,10.30
2022-11-05T20:40:21.844Z,10.30
2022-11-05T20:42:50.055Z,10.30
2022-11-05T20:45:18.322Z,10.20
2022-11-05T20:47:46.932Z,10.20
2022-11-05T20:50:15.308Z,10.20
2022-11-05T20:52:44.954Z,10.20
2022-11-05T20:55:13.171Z,10.20
2022-11-05T20:57:41.991Z,10.20
2022-11-05T21:00:11.203Z,10.20
2022-11-05T21:02:41.310Z,10.20
2022-11-05T21:05:10.284Z,10.10
2022-11-05T21:07:38.455Z,10.10
2022-11-05T21:10:08.462Z,10.20
2022-11-05T21:12:36.663Z,10.20
2022-11-05T21:15:08.652Z,10.20
2022-11-05T21:17:37.624Z,10.20
2022-11-05T21:20:06.525Z,10.20
2022-11-05T21:22:34.721Z,10.20
2022-11-05T21:25:02.943Z,10.10
2022-11-05T21:27:32.484Z,10.10
2022-11-05T21:30:01.446Z,10.00
2022-11-05T21:32:29.710Z,10.10
2022-11-05T21:34:57.905Z,10.00
2022-11-05T21:37:26.612Z,10.00
2022-11-05T21:39:55.426Z,10.00
2022-11-05T21:42:23.596Z,10.00
2022-11-05T21:44:59.112Z,10.00
2022-11-05T21:47:30.467Z,10.10
2022-11-05T21:49:58.731Z,10.10
2022-11-05T21:52:45.956Z,10.00
2022-11-05T21:55:31.760Z,10.00
2022-11-05T21:58:21.273Z,10.00
2022-11-05T22:00:50.866Z,9.90
2022-11-05T22:03:19.524Z,10.00
2022-11-05T22:05:47.733Z,9.90
2022-11-05T22:08:20.366Z,9.90
2022-11-05T22:10:48.645Z,9.90
2022-11-05T22:13:24.466Z,9.90
2022-11-05T22:16:17.581Z,9.90
2022-11-05T22:18:45.893Z,9.80
2022-11-05T22:21:17.364Z,9.80
2022-11-05T22:23:46.214Z,9.80
2022-11-05T22:26:16.541Z,9.90
2022-11-05T22:28:44.669Z,9.90
2022-11-05T22:31:15.130Z,9.90
2022-11-05T22:33:44.411Z,9.90
2022-11-05T22:36:12.958Z,9.90
2022-11-05T22:38:41.341Z,9.90
2022-11-05T22:41:10.141Z,9.90
2022-11-05T22:43:39.223Z,9.90
2022-11-05T22:46:09.277Z,9.90
2022-11-05T22:48:40.355Z,9.90
2022-11-05T22:51:11.587Z,9.90
2022-11-05T22:53:40.441Z,9.80
2022-11-05T22:56:10.385Z,9.90
2022-11-05T22:58:39.052Z,9.90
2022-11-05T23:01:09.180Z,9.90
2022-11-05T23:03:40.344Z,9.90
2022-11-05T23:06:36.148Z,9.90
2022-11-05T23:09:24.729Z,9.90
2022-11-05T23:11:54.900Z,10.00
2022-11-05T23:14:23.178Z,10.00
2022-11-05T23:17:09.180Z,9.90
2022-11-05T23:19:56.053Z,9.90
2022-11-05T23:22:44.442Z,9.80
2022-11-05T23:25:17.789Z,9.90
2022-11-05T23:27:47.590Z,9.90
2022-11-05T23:30:18.555Z,9.90
2022-11-05T23:32:46.819Z,9.90
2022-11-05T23:35:17.134Z,9.90
2022-11-05T23:38:02.848Z,9.90
2022-11-05T23:40:53.347Z,10.00
2022-11-05T23:43:38.807Z,9.90
2022-11-05T23:46:28.056Z,9.90
2022-11-05T23:48:56.218Z,9.90
2022-11-05T23:51:25.757Z,9.90
2022-11-05T23:53:53.912Z,9.90
2022-11-05T23:56:22.553Z,9.90
2022-11-05T23:58:51.045Z,9.80
